Terminal Aerodrome Forecast
Issued by NWS

Home | Current Version | Previous Version | Text Only | Print | Product List | Glossary On
Versions: 1 2 3 4 5 6 7 8 9 10 11 12 13 14 15 16 17 18 19 20 21 22 23 24 25 26 27 28 29 30 31 32 33 34 35 36 37
000
FTUS41 KOKX 240718 AAA
TAFTEB
TAF AMD
KTEB 240718Z 2407/2512 27007KT P6SM SCT050 OVC120
     FM241200 32006KT P6SM FEW050 OVC090
     FM241700 35005KT P6SM OVC080
     FM242000 01004KT 5SM -DZ BR BKN020 OVC050
     FM250200 04009KT 4SM -DZ BR BKN010 OVC035
     FM250600 07009KT 2SM -RA BR OVC007=

USA.gov is the U.S. government's official web portal to all federal, state and local government web resources and services.